Time;durP1;ratioP1;P1;durP2;ratioP2;P2;SDS_P1;SDS_P2;PMS_P1;PMS_P2;Temp;Humidity;BMP_temperature;BMP_pressure;BME280_temperature;BME280_humidity;BME280_pressure;Samples;Min_cycle;Max_cycle;Signal;HPM_P1;HPM_P2
2024/02/06 00:02:23;;;;;;;8.65;5.03;;;;;;;9.92;100.00;101327.50;10380170;28;20131;-70
2024/02/06 00:07:23;;;;;;;16.50;5.18;;;;;;;9.96;100.00;101327.97;10381170;28;20030;-70
2024/02/06 00:12:24;;;;;;;23.48;6.38;;;;;;;9.97;100.00;101311.56;10411810;28;20117;-70
2024/02/06 00:17:24;;;;;;;12.32;4.95;;;;;;;9.98;100.00;101315.94;10361864;28;20133;-70
2024/02/06 00:22:25;;;;;;;10.38;5.25;;;;;;;10.07;100.00;101299.63;10380334;28;20054;-70
2024/02/06 00:27:25;;;;;;;24.90;5.40;;;;;;;10.01;100.00;101323.69;10378683;28;20428;-70
2024/02/06 00:32:26;;;;;;;18.50;5.88;;;;;;;10.00;100.00;101315.75;10411188;28;20457;-70
2024/02/06 00:37:26;;;;;;;16.80;5.65;;;;;;;9.93;100.00;101307.53;10377996;28;20121;-70
2024/02/06 00:42:27;;;;;;;27.08;5.72;;;;;;;9.99;100.00;101309.53;10376652;28;20382;-70
2024/02/06 00:47:27;;;;;;;14.05;4.80;;;;;;;9.99;100.00;101305.97;10378839;28;20064;-70
2024/02/06 00:52:28;;;;;;;12.48;6.57;;;;;;;9.96;100.00;101307.19;10377339;28;20042;-70
2024/02/06 00:57:28;;;;;;;19.80;5.80;;;;;;;9.97;100.00;101287.22;10377810;28;20116;-70
2024/02/06 01:02:29;;;;;;;17.45;5.78;;;;;;;9.97;100.00;101294.50;10392013;28;20077;-70
2024/02/06 01:07:29;;;;;;;17.83;7.95;;;;;;;10.00;100.00;101272.47;10406295;28;20038;-70
2024/02/06 01:12:30;;;;;;;23.63;7.78;;;;;;;9.91;100.00;101262.75;10408247;28;20076;-71
2024/02/06 01:17:30;;;;;;;19.38;6.13;;;;;;;9.96;100.00;101260.34;10391277;28;20037;-70
2024/02/06 01:22:31;;;;;;;22.25;8.07;;;;;;;9.96;100.00;101254.94;10374410;28;20042;-70
2024/02/06 01:27:31;;;;;;;35.90;7.75;;;;;;;9.91;100.00;101243.81;10373793;28;20049;-70
2024/02/06 01:32:32;;;;;;;17.98;9.02;;;;;;;9.94;100.00;101247.00;10373885;28;20053;-69
2024/02/06 01:37:32;;;;;;;17.27;6.45;;;;;;;9.93;100.00;101242.63;10372778;28;20044;-69
2024/02/06 01:42:33;;;;;;;16.80;6.10;;;;;;;9.90;100.00;101234.88;10405638;28;20088;-70
2024/02/06 01:47:34;;;;;;;29.70;7.10;;;;;;;9.90;100.00;101240.28;10373937;28;20042;-70
2024/02/06 01:52:34;;;;;;;28.23;8.18;;;;;;;9.93;100.00;101241.78;10373772;28;20034;-70
2024/02/06 01:57:36;;;;;;;21.52;5.60;;;;;;;9.91;100.00;101230.28;10374444;28;20030;-71
2024/02/06 02:02:37;;;;;;;25.98;6.80;;;;;;;9.88;100.00;101226.09;10373036;28;20481;-70
2024/02/06 02:07:38;;;;;;;20.25;8.93;;;;;;;9.90;100.00;101207.81;10312943;28;1259550;-70
2024/02/06 02:12:39;;;;;;;21.50;6.35;;;;;;;9.86;100.00;101208.34;10372887;28;20126;-70
2024/02/06 02:17:40;;;;;;;16.23;7.13;;;;;;;9.81;100.00;101206.22;10373900;28;20557;-70
2024/02/06 02:22:41;;;;;;;20.27;6.82;;;;;;;9.89;100.00;101189.91;10374175;28;20117;-70
2024/02/06 02:27:41;;;;;;;18.52;5.05;;;;;;;9.85;100.00;101193.16;10380914;28;20026;-71
2024/02/06 02:32:42;;;;;;;23.52;6.10;;;;;;;9.89;100.00;101195.31;10378043;28;20073;-70
2024/02/06 02:37:43;;;;;;;19.52;8.23;;;;;;;9.92;100.00;101180.56;10373083;28;20065;-70
2024/02/06 02:42:43;;;;;;;17.35;5.88;;;;;;;9.89;100.00;101173.69;10373439;28;20516;-70
2024/02/06 02:47:45;;;;;;;33.72;6.43;;;;;;;9.86;100.00;101179.47;10388795;28;20053;-70
2024/02/06 02:52:45;;;;;;;23.88;7.60;;;;;;;9.87;100.00;101164.91;10372287;28;20040;-70
2024/02/06 02:57:46;;;;;;;26.73;6.72;;;;;;;9.89;100.00;101160.16;10373561;28;20065;-70
2024/02/06 03:02:46;;;;;;;33.53;8.43;;;;;;;9.89;100.00;101165.56;10373291;28;20033;-70
2024/02/06 03:07:47;;;;;;;17.50;8.25;;;;;;;9.95;100.00;101163.97;10372940;28;20475;-70
2024/02/06 03:12:47;;;;;;;25.30;8.82;;;;;;;9.96;100.00;101149.44;10373173;28;20390;-70
2024/02/06 03:17:51;;;;;;;30.63;7.50;;;;;;;9.94;100.00;101144.19;10372858;28;20405;-70
2024/02/06 03:22:52;;;;;;;23.20;9.02;;;;;;;9.92;100.00;101138.16;10371551;28;20088;-70
2024/02/06 03:27:52;;;;;;;26.90;6.75;;;;;;;9.90;100.00;101137.50;10371150;28;20115;-70
2024/02/06 03:32:54;;;;;;;13.85;7.43;;;;;;;9.94;100.00;101140.66;10372508;28;20041;-70
2024/02/06 03:37:55;;;;;;;19.27;7.97;;;;;;;9.95;100.00;101137.75;10371649;28;20041;-70
2024/02/06 03:42:55;;;;;;;33.67;10.48;;;;;;;9.96;100.00;101120.50;10371980;28;20046;-70
2024/02/06 03:47:56;;;;;;;19.65;5.57;;;;;;;9.97;100.00;101108.66;10372841;28;20104;-70
2024/02/06 03:52:56;;;;;;;22.27;8.02;;;;;;;9.99;100.00;101119.28;10371472;28;20127;-71
2024/02/06 03:57:57;;;;;;;33.65;9.73;;;;;;;9.97;100.00;101110.53;10371595;28;20067;-70
2024/02/06 04:02:57;;;;;;;36.05;8.25;;;;;;;9.98;100.00;101099.50;10373072;28;20337;-69
2024/02/06 04:07:58;;;;;;;17.67;8.32;;;;;;;10.01;100.00;101101.00;10372254;28;20058;-70
2024/02/06 04:12:58;;;;;;;25.52;8.82;;;;;;;9.98;100.00;101085.97;10371606;28;20073;-70
2024/02/06 04:17:59;;;;;;;28.10;8.90;;;;;;;10.05;100.00;101080.66;10371584;28;20429;-70
2024/02/06 04:23:00;;;;;;;45.70;10.13;;;;;;;10.11;100.00;101079.03;10371151;28;20038;-70
2024/02/06 04:28:00;;;;;;;30.85;9.05;;;;;;;10.12;100.00;101073.47;10372364;28;20038;-70
2024/02/06 04:33:01;;;;;;;25.00;8.15;;;;;;;10.07;100.00;101066.94;10371115;28;20030;-70
2024/02/06 04:38:02;;;;;;;16.75;6.93;;;;;;;10.05;100.00;101059.03;10370892;28;20037;-70
2024/02/06 04:43:02;;;;;;;27.13;8.40;;;;;;;10.07;100.00;101061.53;10378022;28;20117;-69
2024/02/06 04:48:03;;;;;;;49.65;9.82;;;;;;;10.12;100.00;101053.69;10377738;28;20037;-69
2024/02/06 04:53:04;;;;;;;21.08;9.85;;;;;;;10.13;100.00;101056.19;10376887;28;20038;-70
2024/02/06 04:58:05;;;;;;;22.50;8.85;;;;;;;10.13;100.00;101044.53;10377880;28;20092;-70
2024/02/06 05:03:05;;;;;;;15.80;7.72;;;;;;;10.09;100.00;101043.25;10376330;28;20060;-70
2024/02/06 05:08:06;;;;;;;41.15;10.70;;;;;;;10.09;100.00;101024.31;10377245;28;20058;-70
2024/02/06 05:13:07;;;;;;;27.58;9.30;;;;;;;10.08;100.00;101036.13;10377312;28;20078;-70
2024/02/06 05:18:07;;;;;;;34.90;9.15;;;;;;;10.11;100.00;101052.81;10378134;28;20130;-70
2024/02/06 05:23:09;;;;;;;25.45;7.15;;;;;;;10.10;100.00;101034.91;10376855;28;20065;-70
2024/02/06 05:28:10;;;;;;;21.77;8.05;;;;;;;10.10;100.00;101034.09;10376777;28;20038;-70
2024/02/06 05:33:10;;;;;;;21.42;8.05;;;;;;;10.13;100.00;101037.25;10375373;28;20121;-70
2024/02/06 05:38:11;;;;;;;24.40;8.57;;;;;;;10.06;100.00;101027.38;10376229;28;20140;-69
2024/02/06 05:43:11;;;;;;;36.53;11.15;;;;;;;10.05;100.00;101009.47;10407113;28;20038;-70
2024/02/06 05:48:12;;;;;;;21.45;8.18;;;;;;;10.05;100.00;101022.97;10374049;28;20034;-71
2024/02/06 05:53:12;;;;;;;36.85;10.10;;;;;;;10.06;100.00;101009.28;10357319;28;20041;-70
2024/02/06 05:58:13;;;;;;;40.63;11.13;;;;;;;10.03;100.00;100993.44;10374058;28;20030;-70
2024/02/06 06:03:13;;;;;;;33.65;8.95;;;;;;;10.08;100.00;101000.97;10374322;28;20037;-71
2024/02/06 06:08:14;;;;;;;28.65;8.63;;;;;;;10.12;100.00;100999.56;10378568;28;20115;-69
2024/02/06 06:13:14;;;;;;;31.85;8.85;;;;;;;10.17;100.00;100987.13;10375158;28;20108;-70
2024/02/06 06:18:14;;;;;;;28.75;9.07;;;;;;;10.19;100.00;100976.94;10372848;28;20109;-70
2024/02/06 06:23:15;;;;;;;38.83;8.13;;;;;;;10.18;100.00;100963.63;10372769;28;20117;-70
2024/02/06 06:28:15;;;;;;;29.58;12.90;;;;;;;10.19;100.00;100952.59;10374249;28;20446;-70
2024/02/06 06:33:17;;;;;;;26.80;10.20;;;;;;;10.18;100.00;100958.22;10374181;28;20034;-70
2024/02/06 06:38:18;;;;;;;27.25;8.48;;;;;;;10.13;100.00;100950.66;10373811;28;20037;-70
2024/02/06 06:43:18;;;;;;;32.00;10.13;;;;;;;10.13;100.00;100939.81;10372900;28;20065;-70
2024/02/06 06:48:19;;;;;;;29.73;10.77;;;;;;;10.09;100.00;100951.25;10372933;28;20050;-70
2024/02/06 06:53:19;;;;;;;31.27;9.35;;;;;;;10.14;100.00;100946.91;10372994;28;20406;-70
2024/02/06 06:58:20;;;;;;;40.65;11.48;;;;;;;10.15;100.00;100950.47;10372447;28;20125;-70
2024/02/06 07:03:20;;;;;;;34.10;10.30;;;;;;;10.20;100.00;100937.19;10372128;28;20472;-70
2024/02/06 07:08:20;;;;;;;38.60;9.48;;;;;;;10.15;100.00;100934.25;10371859;28;20405;-70
2024/02/06 07:13:21;;;;;;;39.67;10.43;;;;;;;10.16;100.00;100946.72;10373223;28;20080;-70
2024/02/06 07:18:22;;;;;;;25.40;9.40;;;;;;;10.23;100.00;100942.22;10388526;28;20030;-70
2024/02/06 07:23:22;;;;;;;24.90;10.02;;;;;;;10.21;100.00;100952.38;10372478;28;20084;-70
2024/02/06 07:28:23;;;;;;;16.05;6.35;;;;;;;10.19;100.00;100940.94;10372334;28;20065;-70
2024/02/06 07:33:23;;;;;;;36.00;10.85;;;;;;;10.17;100.00;100942.97;10371602;28;20057;-70
2024/02/06 07:38:23;;;;;;;43.42;13.63;;;;;;;10.20;100.00;100937.19;10372277;28;20117;-71
2024/02/06 07:43:25;;;;;;;37.83;10.82;;;;;;;10.26;100.00;100947.25;10372935;28;20548;-70
2024/02/06 07:48:25;;;;;;;29.25;8.52;;;;;;;10.24;100.00;100911.41;10372198;28;20038;-71
2024/02/06 07:53:26;;;;;;;37.33;11.27;;;;;;;10.25;100.00;100938.28;10403121;28;20042;-70
2024/02/06 07:58:26;;;;;;;29.42;8.88;;;;;;;10.27;100.00;100934.56;10372510;28;20037;-70
2024/02/06 08:03:27;;;;;;;33.22;9.63;;;;;;;10.36;100.00;100920.69;10371085;28;20413;-70
2024/02/06 08:08:27;;;;;;;34.47;10.38;;;;;;;10.38;100.00;100882.63;10373080;28;20462;-70
2024/02/06 08:13:28;;;;;;;35.88;8.88;;;;;;;10.45;100.00;100908.69;10374009;28;20041;-70
2024/02/06 08:18:28;;;;;;;22.75;8.25;;;;;;;10.54;100.00;100913.97;10379938;28;20030;-70
2024/02/06 08:23:28;;;;;;;21.80;7.50;;;;;;;10.54;100.00;100897.72;10380697;28;20033;-70
2024/02/06 08:28:29;;;;;;;20.50;8.45;;;;;;;10.62;100.00;100894.84;10378973;28;20120;-69
2024/02/06 08:33:29;;;;;;;27.05;8.35;;;;;;;10.61;100.00;100907.56;10378782;28;20084;-70
2024/02/06 08:38:30;;;;;;;27.38;7.32;;;;;;;10.63;100.00;100891.13;10378422;28;20370;-70
2024/02/06 08:43:31;;;;;;;23.27;8.40;;;;;;;10.69;100.00;100893.88;10378651;28;20069;-70
2024/02/06 08:48:32;;;;;;;30.45;9.23;;;;;;;10.69;100.00;100891.19;10378704;28;20572;-70
2024/02/06 08:53:32;;;;;;;23.92;8.07;;;;;;;10.75;100.00;100884.09;10377685;28;20034;-70
2024/02/06 08:58:33;;;;;;;32.13;10.88;;;;;;;10.74;100.00;100847.22;10377391;28;20034;-69
2024/02/06 09:03:33;;;;;;;23.48;6.50;;;;;;;10.81;100.00;100874.34;10378078;28;20489;-70
2024/02/06 09:08:35;;;;;;;29.38;9.25;;;;;;;10.94;100.00;100867.16;10378502;28;20147;-71
2024/02/06 09:13:35;;;;;;;29.42;7.35;;;;;;;11.02;100.00;100868.84;10377031;28;20037;-69
2024/02/06 09:18:36;;;;;;;36.10;8.02;;;;;;;11.14;100.00;100852.84;10359643;28;20528;-70
2024/02/06 09:23:36;;;;;;;30.95;8.48;;;;;;;11.21;100.00;100850.16;10376471;28;20045;-71
2024/02/06 09:28:38;;;;;;;17.00;6.63;;;;;;;11.31;100.00;100832.47;10377549;28;20145;-70
2024/02/06 09:33:38;;;;;;;27.15;8.95;;;;;;;11.44;100.00;100820.00;10359055;28;20081;-70
2024/02/06 09:38:39;;;;;;;16.73;7.43;;;;;;;11.63;100.00;100819.19;10376523;28;20038;-70
2024/02/06 09:43:40;;;;;;;31.83;8.88;;;;;;;11.68;100.00;100810.41;10376624;28;20069;-70
2024/02/06 09:48:40;;;;;;;19.30;6.72;;;;;;;11.76;100.00;100792.06;10375295;28;20037;-70
2024/02/06 09:53:41;;;;;;;24.35;7.60;;;;;;;11.86;100.00;100780.84;10407370;28;20046;-71
2024/02/06 09:58:41;;;;;;;10.48;5.82;;;;;;;11.94;100.00;100772.50;10374056;28;20049;-70
2024/02/06 10:03:43;;;;;;;17.48;6.72;;;;;;;12.23;100.00;100784.78;10374437;28;20124;-70
2024/02/06 10:08:44;;;;;;;19.65;8.27;;;;;;;12.50;100.00;100795.56;10358633;28;20037;-70
2024/02/06 10:13:45;;;;;;;24.83;7.40;;;;;;;12.99;100.00;100777.88;10358692;28;20028;-70
2024/02/06 10:18:55;;;;;;;24.92;7.50;;;;;;;12.84;100.00;100780.03;10375003;28;20117;-70
2024/02/06 10:24:00;;;;;;;29.13;7.68;;;;;;;12.51;100.00;100783.69;10373970;28;20109;-70
2024/02/06 10:29:08;;;;;;;15.50;6.90;;;;;;;12.39;100.00;100772.63;10372918;28;20060;-70
2024/02/06 10:34:11;;;;;;;16.90;6.57;;;;;;;12.33;100.00;100777.03;10374453;28;20033;-70
2024/02/06 10:39:14;;;;;;;32.42;8.88;;;;;;;12.31;100.00;100745.69;10373445;28;20053;-70
2024/02/06 10:44:14;;;;;;;15.88;6.00;;;;;;;12.20;100.00;100758.06;10357200;28;20034;-70
2024/02/06 10:49:15;;;;;;;24.17;8.60;;;;;;;12.25;100.00;100741.13;10372935;28;20044;-70
2024/02/06 10:54:20;;;;;;;13.55;6.38;;;;;;;11.99;100.00;100758.28;10373900;28;20042;-70
2024/02/06 10:59:21;;;;;;;13.50;5.40;;;;;;;12.03;100.00;100775.84;10371739;28;20462;-70
2024/02/06 11:04:22;;;;;;;19.55;5.25;;;;;;;12.04;100.00;100778.31;10355208;28;20081;-70
2024/02/06 11:09:22;;;;;;;14.80;4.43;;;;;;;11.97;100.00;100788.38;10372495;28;20129;-70
2024/02/06 11:14:22;;;;;;;18.00;7.45;;;;;;;11.99;100.00;100794.41;10371155;28;20084;-70
2024/02/06 11:19:45;;;;;;;14.25;5.38;;;;;;;12.01;100.00;100794.19;10372089;28;20029;-70
2024/02/06 11:24:46;;;;;;;29.25;7.32;;;;;;;11.85;100.00;100781.88;10371471;28;20061;-70
2024/02/06 11:29:47;;;;;;;32.83;9.00;;;;;;;11.79;100.00;100801.69;10354549;28;20037;-71
2024/02/06 11:34:54;;;;;;;23.85;8.25;;;;;;;11.71;100.00;100794.59;10356016;28;20037;-70
2024/02/06 11:40:08;;;;;;;29.08;10.40;;;;;;;11.74;100.00;100758.91;10370624;28;20136;-70
2024/02/06 11:45:09;;;;;;;24.08;7.80;;;;;;;11.63;100.00;100752.22;10370545;28;20040;-70
2024/02/06 11:50:12;;;;;;;24.48;6.38;;;;;;;11.70;100.00;100738.66;10375723;28;20120;-70
2024/02/06 11:55:12;;;;;;;22.42;9.20;;;;;;;11.90;100.00;100729.69;10378797;28;20355;-69
2024/02/06 12:00:14;;;;;;;19.02;8.80;;;;;;;11.86;100.00;100738.25;10381021;28;20101;-72
2024/02/06 12:05:15;;;;;;;17.70;6.93;;;;;;;11.97;100.00;100712.38;10378245;28;20085;-70
2024/02/06 12:10:31;;;;;;;29.67;6.60;;;;;;;12.27;100.00;100714.59;10380325;28;20092;-70
2024/02/06 12:15:32;;;;;;;32.03;8.43;;;;;;;12.30;100.00;100723.16;10379100;28;20042;-71
2024/02/06 12:20:33;;;;;;;35.53;8.60;;;;;;;12.04;100.00;100710.47;10378884;28;20045;-70
2024/02/06 12:25:34;;;;;;;21.40;5.97;;;;;;;12.21;100.00;100723.59;10378767;28;20088;-70
2024/02/06 12:30:35;;;;;;;17.48;7.95;;;;;;;12.23;100.00;100726.94;10395456;28;20050;-70
2024/02/06 12:35:37;;;;;;;25.08;8.13;;;;;;;12.17;100.00;100716.94;10378545;28;20396;-70
2024/02/06 12:40:37;;;;;;;30.30;9.82;;;;;;;12.05;100.00;100723.00;10361006;28;20184;-70
2024/02/06 12:45:38;;;;;;;34.53;9.80;;;;;;;11.90;100.00;100713.41;10409239;28;20146;-70
2024/02/06 12:50:38;;;;;;;38.50;11.02;;;;;;;11.86;100.00;100711.13;10377409;28;20042;-70
2024/02/06 12:55:40;;;;;;;27.75;9.80;;;;;;;11.77;100.00;100700.66;10377243;28;20140;-70
2024/02/06 13:00:40;;;;;;;34.85;10.85;;;;;;;11.78;100.00;100686.06;10375452;28;20030;-70
2024/02/06 13:05:44;;;;;;;25.25;7.60;;;;;;;11.73;100.00;100686.69;10376751;28;20087;-70
2024/02/06 13:10:44;;;;;;;29.10;7.97;;;;;;;11.61;100.00;100685.66;10359557;28;20077;-70
2024/02/06 13:15:45;;;;;;;25.40;10.90;;;;;;;11.58;100.00;100688.78;10377800;28;20037;-70
2024/02/06 13:20:55;;;;;;;43.38;9.55;;;;;;;11.52;100.00;100685.06;10358335;28;20175;-69
2024/02/06 13:25:56;;;;;;;30.38;10.77;;;;;;;11.51;100.00;100682.53;10374808;28;20030;-70
2024/02/06 13:30:56;;;;;;;26.58;8.50;;;;;;;11.42;100.00;100668.34;10375282;28;20436;-70
2024/02/06 13:35:57;;;;;;;35.22;8.98;;;;;;;11.48;100.00;100655.84;10375807;28;20478;-70
2024/02/06 13:40:57;;;;;;;21.58;7.63;;;;;;;11.57;100.00;100657.28;10376992;28;20068;-70
2024/02/06 13:45:58;;;;;;;31.45;8.18;;;;;;;11.41;100.00;100647.72;10375674;28;20069;-70
2024/02/06 13:50:58;;;;;;;27.45;7.95;;;;;;;11.25;100.00;100659.78;10376548;28;20068;-70
2024/02/06 13:55:59;;;;;;;19.77;7.65;;;;;;;11.19;100.00;100655.22;10374735;28;20042;-70
2024/02/06 14:00:59;;;;;;;28.73;8.45;;;;;;;11.11;100.00;100642.69;10391252;28;20026;-70
2024/02/06 14:05:59;;;;;;;21.15;7.75;;;;;;;11.17;100.00;100641.88;10375261;28;20054;-70
2024/02/06 14:11:00;;;;;;;19.98;7.25;;;;;;;11.21;100.00;100639.59;10374766;28;20108;-70
2024/02/06 14:16:00;;;;;;;28.00;6.93;;;;;;;11.30;100.00;100643.75;10373940;28;20503;-70
2024/02/06 14:21:01;;;;;;;31.00;8.32;;;;;;;11.25;100.00;100627.28;10374190;28;20033;-70
2024/02/06 14:26:04;;;;;;;17.10;7.05;;;;;;;11.30;100.00;100646.47;10405143;28;20041;-70
2024/02/06 14:31:04;;;;;;;25.73;8.27;;;;;;;11.30;100.00;100624.78;10375947;28;20062;-70
2024/02/06 14:36:05;;;;;;;24.20;6.75;;;;;;;11.28;100.00;100626.03;10372659;28;20065;-70
2024/02/06 14:41:06;;;;;;;19.02;9.00;;;;;;;11.26;100.00;100604.53;10374011;28;20034;-70
2024/02/06 14:46:06;;;;;;;27.77;8.18;;;;;;;11.17;100.00;100592.25;10372240;28;20061;-70
2024/02/06 14:51:08;;;;;;;33.38;7.30;;;;;;;11.10;100.00;100602.25;10372100;28;20057;-70
2024/02/06 14:56:09;;;;;;;34.03;9.27;;;;;;;11.11;100.00;100604.75;10373196;28;20478;-70
2024/02/06 15:01:09;;;;;;;30.02;7.45;;;;;;;11.17;100.00;100603.94;10373135;28;20065;-70
2024/02/06 15:06:10;;;;;;;30.05;11.40;;;;;;;11.08;100.00;100601.66;10373309;28;20057;-70
2024/02/06 15:11:10;;;;;;;21.23;9.20;;;;;;;11.06;100.00;100590.16;10372236;28;20389;-71
2024/02/06 15:16:11;;;;;;;46.35;11.43;;;;;;;10.94;100.00;100601.63;10373180;28;20398;-70
2024/02/06 15:21:11;;;;;;;36.20;13.50;;;;;;;10.85;100.00;100611.00;10372138;28;20076;-70
2024/02/06 15:26:12;;;;;;;35.33;11.93;;;;;;;10.74;100.00;100595.34;10371660;28;20084;-70
2024/02/06 15:31:12;;;;;;;39.10;14.13;;;;;;;10.79;100.00;100601.00;10372804;28;20120;-70
2024/02/06 15:36:12;;;;;;;46.63;11.13;;;;;;;10.80;100.00;100583.69;10371511;28;20069;-70
2024/02/06 15:41:13;;;;;;;41.72;11.15;;;;;;;10.85;100.00;100581.22;10372387;28;20026;-70
2024/02/06 15:46:14;;;;;;;31.27;10.02;;;;;;;10.76;100.00;100573.50;10372330;28;20040;-70
2024/02/06 15:51:14;;;;;;;38.40;10.73;;;;;;;10.68;100.00;100563.66;10371902;28;20156;-70
2024/02/06 15:56:14;;;;;;;34.88;12.25;;;;;;;10.67;100.00;100570.13;10370340;28;20033;-70
2024/02/06 16:01:15;;;;;;;28.30;11.05;;;;;;;10.65;100.00;100555.97;10371369;28;20061;-70
2024/02/06 16:06:15;;;;;;;32.03;9.48;;;;;;;10.67;100.00;100557.44;10371004;28;20420;-70
2024/02/06 16:11:16;;;;;;;52.17;11.75;;;;;;;10.67;100.00;100548.47;10371402;28;20068;-70
2024/02/06 16:16:19;;;;;;;41.95;13.18;;;;;;;10.68;100.00;100550.13;10371471;28;20409;-70
2024/02/06 16:21:20;;;;;;;51.85;13.52;;;;;;;10.66;100.00;100558.47;10386243;28;20450;-70
2024/02/06 16:26:20;;;;;;;31.13;10.65;;;;;;;10.67;100.00;100560.13;10371724;28;20072;-70
2024/02/06 16:31:21;;;;;;;35.22;12.35;;;;;;;10.62;100.00;100540.13;10369601;28;20029;-70
2024/02/06 16:36:21;;;;;;;33.20;12.23;;;;;;;10.64;100.00;100565.13;10374241;28;20084;-70
2024/02/06 16:41:21;;;;;;;44.63;12.23;;;;;;;10.60;100.00;100548.47;10377522;28;20030;-70
2024/02/06 16:46:22;;;;;;;43.70;10.23;;;;;;;10.57;100.00;100529.09;10377676;28;20096;-70
2024/02/06 16:51:22;;;;;;;36.85;13.32;;;;;;;10.61;100.00;100530.34;10377236;28;20033;-70
2024/02/06 16:56:23;;;;;;;32.60;11.30;;;;;;;10.60;100.00;100531.41;10377841;28;20160;-70
2024/02/06 17:01:23;;;;;;;36.40;10.35;;;;;;;10.65;100.00;100528.88;10378842;28;20116;-70
2024/02/06 17:06:24;;;;;;;56.42;11.60;;;;;;;10.63;100.00;100520.16;10377969;28;20148;-70
2024/02/06 17:11:24;;;;;;;49.92;13.38;;;;;;;10.57;100.00;100531.81;10377013;28;20129;-70
2024/02/06 17:16:25;;;;;;;31.17;8.65;;;;;;;10.69;100.00;100524.75;10376968;28;20125;-70
2024/02/06 17:21:25;;;;;;;38.47;12.45;;;;;;;10.66;100.00;100511.63;10376813;28;20141;-70
2024/02/06 17:26:26;;;;;;;47.30;14.05;;;;;;;10.65;100.00;100513.47;10376726;28;20508;-69
2024/02/06 17:31:26;;;;;;;37.80;13.02;;;;;;;10.70;100.00;100493.91;10377418;28;20042;-70
2024/02/06 17:36:28;;;;;;;33.83;11.93;;;;;;;10.76;100.00;100503.06;10375956;28;20082;-70
2024/02/06 17:41:29;;;;;;;43.28;14.77;;;;;;;10.80;100.00;100494.31;10377642;28;20095;-70
2024/02/06 17:46:29;;;;;;;26.75;9.20;;;;;;;10.80;100.00;100482.66;10374863;28;20042;-70
2024/02/06 17:51:31;;;;;;;25.40;11.27;;;;;;;10.79;100.00;100495.34;10375408;28;20455;-70
2024/02/06 17:56:31;;;;;;;41.65;12.65;;;;;;;10.85;100.00;100480.97;10376515;28;20042;-70
2024/02/06 18:01:31;;;;;;;43.45;13.60;;;;;;;10.80;100.00;100482.66;10375370;28;20042;-70
2024/02/06 18:06:32;;;;;;;33.13;12.85;;;;;;;10.66;100.00;100460.16;10375043;28;20058;-70
2024/02/06 18:11:32;;;;;;;53.22;13.15;;;;;;;10.59;100.00;100468.28;10376150;28;20042;-70
2024/02/06 18:17:06;;;;;;;53.28;12.88;;;;;;;10.49;100.00;100451.59;10375017;28;20034;-70
2024/02/06 18:21:58;;;;;;;57.60;14.45;;;;;;;10.39;100.00;100446.59;10371531;28;20077;-69
2024/02/06 18:26:59;;;;;;;36.90;12.23;;;;;;;10.33;100.00;100433.91;10373631;28;20087;-70
2024/02/06 18:31:59;;;;;;;43.22;13.10;;;;;;;10.26;100.00;100427.66;10374738;28;20049;-70
2024/02/06 18:37:00;;;;;;;59.25;13.55;;;;;;;10.19;100.00;100426.78;10375603;28;20030;-68
2024/02/06 18:42:00;;;;;;;21.83;11.02;;;;;;;10.08;100.00;100416.56;10375121;28;20076;-67
2024/02/06 18:47:01;;;;;;;27.17;11.50;;;;;;;10.05;100.00;100431.34;10372376;28;20038;-67
2024/02/06 18:52:02;;;;;;;0.40;0.40;;;;;;;9.98;100.00;100430.50;10373993;28;20033;-67
2024/02/06 18:57:03;;;;;;;2.95;2.13;;;;;;;9.92;100.00;100425.91;10372046;28;20126;-67
2024/02/06 19:02:04;;;;;;;0.80;0.80;;;;;;;9.83;100.00;100403.63;10373414;28;20042;-69
2024/02/06 19:07:04;;;;;;;58.38;6.38;;;;;;;9.75;100.00;100401.13;10373417;28;20060;-69
2024/02/06 19:12:05;;;;;;;13.75;6.43;;;;;;;9.73;100.00;100378.84;10373661;28;20432;-69
2024/02/06 19:17:05;;;;;;;9.88;5.72;;;;;;;9.70;100.00;100395.47;10371906;28;20033;-71
2024/02/06 19:22:06;;;;;;;2.35;2.25;;;;;;;9.64;100.00;100399.84;10373992;28;20049;-70
2024/02/06 19:27:06;;;;;;;3.95;3.05;;;;;;;9.65;100.00;100398.81;10373238;28;20041;-70
2024/02/06 19:32:06;;;;;;;1.08;1.05;;;;;;;9.63;100.00;100371.13;10374770;28;20045;-71
2024/02/06 19:37:07;;;;;;;3.85;3.40;;;;;;;9.65;100.00;100387.16;10389093;28;20404;-70
2024/02/06 19:42:07;;;;;;;0.43;0.43;;;;;;;9.68;100.00;100389.47;10374010;28;20072;-72
2024/02/06 19:47:09;;;;;;;1.13;1.13;;;;;;;9.66;100.00;100395.06;10405398;28;20053;-73
2024/02/06 19:52:10;;;;;;;24.58;11.10;;;;;;;9.68;100.00;100381.34;10375623;28;20049;-73
2024/02/06 19:57:10;;;;;;;0.40;0.40;;;;;;;9.66;100.00;100386.13;10372786;28;20437;-74
2024/02/06 20:02:11;;;;;;;0.65;0.65;;;;;;;9.65;100.00;100389.88;10405406;28;20069;-73
2024/02/06 20:07:11;;;;;;;26.08;10.95;;;;;;;9.66;100.00;100384.25;10372984;28;20050;-72
2024/02/06 20:12:11;;;;;;;26.15;9.95;;;;;;;9.68;100.00;100354.31;10376495;28;20102;-72
2024/02/06 20:17:12;;;;;;;43.28;12.50;;;;;;;9.68;100.00;100360.53;10395892;28;20030;-71
2024/02/06 20:22:12;;;;;;;28.95;11.45;;;;;;;9.68;100.00;100352.44;10381049;28;20037;-72
2024/02/06 20:27:13;;;;;;;6.22;2.70;;;;;;;9.70;100.00;100336.84;10378392;28;20370;-73
2024/02/06 20:32:15;;;;;;;3.70;3.55;;;;;;;9.74;100.00;100353.50;10379588;28;20034;-72
2024/02/06 20:37:19;;;;;;;3.22;1.95;;;;;;;9.68;100.00;100335.38;10379686;28;20183;-72
2024/02/06 20:42:20;;;;;;;27.60;9.45;;;;;;;9.69;100.00;100328.94;10379333;28;20347;-73
2024/02/06 20:47:20;;;;;;;43.13;9.13;;;;;;;9.72;100.00;100344.75;10380069;28;20033;-72
2024/02/06 20:52:20;;;;;;;27.05;8.30;;;;;;;9.72;100.00;100340.16;10394055;28;20046;-72
2024/02/06 20:57:21;;;;;;;23.50;8.52;;;;;;;9.68;100.00;100346.19;10378680;28;20033;-71
2024/02/06 21:02:21;;;;;;;30.50;8.75;;;;;;;9.67;100.00;100331.03;10378706;28;20069;-71
2024/02/06 21:07:22;;;;;;;20.48;7.75;;;;;;;9.71;100.00;100321.47;10379039;28;20057;-73
2024/02/06 21:12:22;;;;;;;2.22;2.10;;;;;;;9.68;100.00;100322.69;10378336;28;20367;-73
2024/02/06 21:17:23;;;;;;;0.93;0.93;;;;;;;9.73;100.00;100305.84;10410323;28;20392;-73
2024/02/06 21:22:23;;;;;;;2.75;2.53;;;;;;;9.69;100.00;100289.19;10377974;28;20049;-72
2024/02/06 21:27:24;;;;;;;1.50;1.45;;;;;;;9.69;100.00;100291.91;10376385;28;20104;-73
2024/02/06 21:32:25;;;;;;;2.25;1.73;;;;;;;9.71;100.00;100267.38;10377085;28;20030;-73
2024/02/06 21:37:25;;;;;;;0.65;0.65;;;;;;;9.73;100.00;100276.97;10408976;28;20040;-73
2024/02/06 21:42:26;;;;;;;0.60;0.60;;;;;;;9.70;100.00;100263.84;10377036;28;20038;-72
2024/02/06 21:47:26;;;;;;;17.67;8.25;;;;;;;9.72;100.00;100242.00;10376577;28;20469;-72
2024/02/06 21:52:27;;;;;;;21.90;8.07;;;;;;;9.75;100.00;100253.22;10407997;28;20032;-73
2024/02/06 21:57:28;;;;;;;29.77;11.43;;;;;;;9.74;100.00;100250.75;10376351;28;20056;-73
2024/02/06 22:02:28;;;;;;;9.95;6.78;;;;;;;9.73;100.00;100233.69;10375000;28;20030;-72
2024/02/06 22:07:29;;;;;;;29.38;10.35;;;;;;;9.70;100.00;100260.28;10375561;28;20050;-72
2024/02/06 22:12:30;;;;;;;45.03;12.35;;;;;;;9.76;100.00;100276.53;10376883;28;20363;-72
2024/02/06 22:17:32;;;;;;;38.72;9.45;;;;;;;9.83;100.00;100327.94;10374918;28;20061;-73
2024/02/06 22:22:32;;;;;;;2.50;2.40;;;;;;;9.46;100.00;100319.31;10375225;28;20113;-74
2024/02/06 22:27:33;;;;;;;0.30;0.30;;;;;;;8.95;100.00;100341.38;10375765;28;20038;-75
2024/02/06 22:32:33;;;;;;;2.33;2.15;;;;;;;8.30;100.00;100334.53;10356431;28;20033;-75